Terminal Aerodrome Forecast
Issued by NWS

Current Version | Previous Version | Text Only | Print | Product List | Glossary On
Versions: 1 2 3 4 5 6 7 8 9 10 11 12 13 14
000
FTUS42 TJSJ 020010 RRA
TAFJMZ
TAF
TJMZ 020010Z 0200/0224 08006KT P6SM FEW025 BKN050 BKN100
     FM020230 05003KT P6SM FEW030 SCT060 SCT120
     FM021430 07015KT P6SM FEW030
      AMD NOT SKED TIL 021100=

USA.gov is the U.S. government's official web portal to all federal, state and local government web resources and services.